Time;durP1;ratioP1;P1;durP2;ratioP2;P2;SDS_P1;SDS_P2;PMS_P1;PMS_P2;Temp;Humidity;BMP_temperature;BMP_pressure;BME280_temperature;BME280_humidity;BME280_pressure;Samples;Min_cycle;Max_cycle;Signal;HPM_P1;HPM_P2
2023/02/22 10:11:58;;;;;;;22.10;20.13;;;18.20;80.80;;;;;;5087153;27;20640;-78
2023/02/22 10:14:42;;;;;;;21.60;20.13;;;21.50;71.80;;;;;;5086603;28;20449;-78
2023/02/22 10:17:19;;;;;;;20.80;19.30;;;21.90;70.70;;;;;;5086816;28;20948;-79
2023/02/22 10:19:59;;;;;;;18.83;17.63;;;22.80;67.50;;;;;;5086317;28;20460;-78
2023/02/22 10:22:44;;;;;;;20.13;18.77;;;23.30;64.70;;;;;;5086165;28;20561;-78
2023/02/22 10:25:16;;;;;;;21.87;20.37;;;23.20;63.70;;;;;;5086441;28;20453;-79
2023/02/22 10:27:48;;;;;;;19.60;18.30;;;23.60;63.00;;;;;;5085869;28;20446;-78
2023/02/22 10:30:20;;;;;;;20.87;19.00;;;24.50;59.40;;;;;;5085801;28;20836;-79
2023/02/22 10:32:52;;;;;;;22.23;20.13;;;24.10;61.70;;;;;;5086815;28;20455;-77
2023/02/22 10:35:22;;;;;;;20.83;19.50;;;25.50;58.30;;;;;;5086171;28;20936;-78
2023/02/22 10:37:53;;;;;;;21.10;19.70;;;26.00;55.80;;;;;;5086147;28;20952;-78
2023/02/22 10:40:30;;;;;;;20.97;19.30;;;26.50;54.80;;;;;;5086323;28;20798;-79
2023/02/22 10:43:01;;;;;;;20.53;19.03;;;26.80;51.90;;;;;;5085597;28;20450;-78
2023/02/22 10:45:31;;;;;;;19.93;18.73;;;26.10;53.20;;;;;;5086363;28;21151;-78
2023/02/22 10:48:01;;;;;;;21.23;19.70;;;25.60;53.40;;;;;;5085790;28;20458;-78
2023/02/22 10:50:30;;;;;;;20.17;18.77;;;25.00;55.50;;;;;;5085578;28;20482;-77
2023/02/22 10:52:57;;;;;;;19.60;18.30;;;24.90;55.20;;;;;;5085392;28;20457;-77
2023/02/22 10:55:24;;;;;;;19.37;18.07;;;24.30;55.30;;;;;;5085959;28;20447;-80
2023/02/22 10:57:58;;;;;;;19.23;18.07;;;24.20;55.40;;;;;;5085680;28;20458;-79
2023/02/22 11:00:30;;;;;;;21.10;19.50;;;24.10;56.30;;;;;;5084888;28;20454;-78
2023/02/22 11:02:59;;;;;;;23.03;21.33;;;24.70;55.50;;;;;;5085334;28;20453;-79
2023/02/22 11:05:36;;;;;;;20.50;19.40;;;23.90;55.80;;;;;;5085260;28;20450;-78
2023/02/22 11:08:31;;;;;;;21.90;20.10;;;23.80;56.80;;;;;;5084774;28;20534;-79
2023/02/22 11:11:02;;;;;;;18.70;17.53;;;23.40;56.90;;;;;;5057185;28;20530;-78
2023/02/22 11:13:32;;;;;;;19.30;18.00;;;22.80;57.80;;;;;;5071382;28;20504;-78
2023/02/22 11:16:16;;;;;;;19.70;18.50;;;23.20;57.70;;;;;;5071429;28;20458;-78
2023/02/22 11:18:43;;;;;;;22.47;20.70;;;22.90;57.70;;;;;;5071567;28;20466;-77
2023/02/22 11:21:12;;;;;;;20.90;19.13;;;22.80;57.90;;;;;;5071703;28;20450;-78
2023/02/22 11:23:42;;;;;;;20.50;18.60;;;22.00;58.90;;;;;;5071542;28;20490;-78
2023/02/22 11:26:13;;;;;;;21.47;19.87;;;21.50;60.80;;;;;;5071869;28;20455;-79
2023/02/22 11:28:48;;;;;;;19.70;18.30;;;21.30;61.90;;;;;;5072158;28;20469;-77
2023/02/22 11:31:19;;;;;;;19.57;18.13;;;20.90;62.70;;;;;;5071900;28;20558;-78
2023/02/22 11:33:54;;;;;;;19.87;18.27;;;20.40;64.40;;;;;;5072067;28;20800;-79
2023/02/22 11:36:36;;;;;;;19.53;18.43;;;20.20;66.20;;;;;;5073137;28;20453;-78
2023/02/22 11:39:10;;;;;;;20.33;18.93;;;20.00;66.70;;;;;;5071905;28;20475;-77
2023/02/22 11:41:36;;;;;;;20.37;19.07;;;20.50;66.60;;;;;;5072639;28;20564;-78
2023/02/22 11:44:22;;;;;;;20.43;18.70;;;20.70;66.00;;;;;;5075264;28;20513;-78
2023/02/22 11:46:54;;;;;;;20.17;19.07;;;20.60;65.90;;;;;;5071174;28;20975;-78
2023/02/22 11:49:23;;;;;;;21.13;19.53;;;20.10;67.20;;;;;;5071428;28;20451;-78
2023/02/22 11:52:02;;;;;;;19.47;17.60;;;20.40;67.70;;;;;;5071120;28;20501;-77
2023/02/22 11:54:45;;;;;;;22.67;20.97;;;20.40;67.60;;;;;;5070717;28;21005;-77
2023/02/22 11:57:26;;;;;;;20.00;18.57;;;20.80;67.50;;;;;;5070847;28;20455;-79
2023/02/22 12:00:08;;;;;;;21.47;19.63;;;21.30;66.40;;;;;;5070782;28;20458;-78
2023/02/22 12:03:08;;;;;;;22.40;20.70;;;21.10;65.40;;;;;;5070834;28;20524;-77
2023/02/22 12:05:59;;;;;;;21.97;20.23;;;21.20;66.00;;;;;;5049800;28;20452;-77
2023/02/22 12:08:36;;;;;;;21.00;19.57;;;20.90;65.90;;;;;;5070535;28;20517;-77
2023/02/22 12:11:11;;;;;;;20.60;19.20;;;20.20;68.10;;;;;;5070422;28;20527;-77
2023/02/22 12:13:49;;;;;;;20.70;19.40;;;19.80;70.00;;;;;;5070828;28;20449;-77
2023/02/22 12:16:23;;;;;;;22.97;21.47;;;19.40;70.50;;;;;;5070349;28;20458;-77
2023/02/22 12:19:08;;;;;;;21.03;19.50;;;18.90;72.30;;;;;;5070497;28;20461;-78
2023/02/22 12:21:39;;;;;;;19.87;18.30;;;19.30;73.20;;;;;;5070359;28;20443;-77
2023/02/22 12:24:13;;;;;;;20.67;19.37;;;19.50;72.30;;;;;;5069300;28;20850;-77
2023/02/22 12:26:42;;;;;;;22.40;20.57;;;19.20;72.70;;;;;;5069939;28;20558;-77
2023/02/22 12:29:14;;;;;;;21.43;19.93;;;19.40;73.50;;;;;;5069921;28;20512;-77
2023/02/22 12:31:45;;;;;;;23.47;21.57;;;19.60;72.40;;;;;;5069759;28;20479;-77
2023/02/22 12:34:20;;;;;;;20.73;19.07;;;19.20;72.10;;;;;;5069588;28;20478;-77
2023/02/22 12:36:51;;;;;;;21.17;19.77;;;18.80;73.60;;;;;;5069620;28;20965;-77
2023/02/22 12:39:33;;;;;;;21.53;19.93;;;18.50;75.00;;;;;;5070020;28;20471;-78
2023/02/22 12:42:03;;;;;;;21.23;19.80;;;18.30;75.90;;;;;;5069849;28;20788;-78
2023/02/22 12:44:34;;;;;;;22.67;20.77;;;17.90;78.20;;;;;;5069561;28;20958;-77
2023/02/22 12:47:04;;;;;;;22.30;20.70;;;17.70;78.90;;;;;;5069625;28;20459;-78
2023/02/22 12:49:38;;;;;;;21.93;19.73;;;17.60;79.60;;;;;;5069706;28;20459;-77
2023/02/22 12:52:15;;;;;;;21.33;19.93;;;17.60;80.70;;;;;;5069553;28;20490;-77
2023/02/22 12:54:48;;;;;;;22.07;20.13;;;17.80;80.20;;;;;;5069506;28;21000;-78
2023/02/22 12:57:23;;;;;;;21.63;19.93;;;17.50;81.50;;;;;;5069508;28;20486;-78
2023/02/22 12:59:54;;;;;;;18.77;17.37;;;17.40;81.10;;;;;;5070003;28;20458;-77
2023/02/22 13:02:27;;;;;;;19.97;18.47;;;17.20;81.30;;;;;;5069907;28;20450;-78
2023/02/22 13:04:55;;;;;;;21.67;20.20;;;17.20;81.60;;;;;;5069448;28;20520;-78
2023/02/22 13:07:41;;;;;;;20.73;19.30;;;17.20;81.00;;;;;;5069600;28;20486;-77
2023/02/22 13:10:29;;;;;;;21.33;19.60;;;17.40;80.00;;;;;;5068905;28;20985;-77
2023/02/22 13:13:03;;;;;;;19.77;18.13;;;17.40;79.40;;;;;;5069083;28;20461;-78
2023/02/22 13:15:36;;;;;;;19.40;18.03;;;17.40;79.50;;;;;;5068906;28;20474;-78
2023/02/22 13:18:12;;;;;;;19.00;17.80;;;17.40;79.70;;;;;;5068937;28;20450;-77
2023/02/22 13:20:45;;;;;;;20.10;18.63;;;17.50;79.90;;;;;;5068681;28;20469;-77
2023/02/22 13:23:20;;;;;;;21.40;19.60;;;17.90;78.80;;;;;;5068867;28;20462;-78
2023/02/22 13:25:54;;;;;;;19.80;18.40;;;18.70;76.40;;;;;;5069139;28;20453;-80
2023/02/22 13:28:29;;;;;;;21.03;19.40;;;18.80;74.90;;;;;;5069076;28;20455;-78
2023/02/22 13:31:14;;;;;;;19.50;18.10;;;20.00;72.90;;;;;;5068789;28;20870;-77
2023/02/22 13:34:00;;;;;;;19.90;18.60;;;20.60;69.50;;;;;;5068828;28;20450;-77
2023/02/22 13:36:47;;;;;;;21.37;19.53;;;20.70;67.70;;;;;;5068607;28;20539;-77
2023/02/22 13:39:38;;;;;;;21.27;19.80;;;20.50;67.60;;;;;;5068796;28;21080;-77
2023/02/22 13:42:22;;;;;;;19.33;18.03;;;19.80;69.00;;;;;;5067320;28;20470;-78
2023/02/22 13:45:25;;;;;;;21.53;19.93;;;19.30;70.30;;;;;;5069120;28;20462;-77
2023/02/22 13:48:24;;;;;;;19.20;18.00;;;18.90;72.20;;;;;;5068804;28;20829;-77
2023/02/22 13:51:19;;;;;;;20.73;19.20;;;18.30;72.70;;;;;;5068811;28;20494;-78
2023/02/22 13:53:54;;;;;;;19.10;17.67;;;17.80;74.20;;;;;;5068216;28;20546;-78
2023/02/22 13:56:23;;;;;;;20.20;18.53;;;17.50;75.90;;;;;;5068743;28;20456;-78
2023/02/22 13:58:53;;;;;;;19.10;17.20;;;17.30;76.30;;;;;;5068773;28;20526;-77
2023/02/22 14:01:40;;;;;;;18.40;17.00;;;16.90;77.70;;;;;;5068534;28;20443;-78
2023/02/22 14:04:21;;;;;;;18.60;16.80;;;16.80;78.10;;;;;;5068405;28;20454;-77
2023/02/22 14:06:50;;;;;;;19.10;17.40;;;16.80;78.70;;;;;;5068712;28;20470;-76
2023/02/22 14:09:44;;;;;;;20.50;18.80;;;16.60;79.70;;;;;;5068107;28;20818;-77
2023/02/22 14:12:32;;;;;;;19.87;18.23;;;16.30;81.20;;;;;;5068037;28;20988;-76
2023/02/22 14:15:14;;;;;;;18.80;17.30;;;16.00;81.40;;;;;;5068185;28;20451;-77
2023/02/22 14:17:43;;;;;;;19.77;17.97;;;16.00;82.90;;;;;;5068075;28;20450;-77
2023/02/22 14:20:33;;;;;;;20.10;18.57;;;16.00;84.30;;;;;;5067904;28;20451;-79
2023/02/22 14:23:28;;;;;;;19.73;18.33;;;16.00;84.70;;;;;;5067910;28;20454;-77
2023/02/22 14:26:08;;;;;;;18.40;16.80;;;15.90;85.10;;;;;;5068174;28;20557;-78
2023/02/22 14:28:42;;;;;;;20.73;18.73;;;16.00;83.80;;;;;;5068442;28;20838;-78
2023/02/22 14:31:11;;;;;;;19.03;17.67;;;15.90;84.00;;;;;;5068056;28;20834;-78
2023/02/22 14:33:58;;;;;;;19.90;17.90;;;16.10;83.80;;;;;;5068550;28;20878;-78
2023/02/22 14:36:29;;;;;;;18.40;16.90;;;16.10;83.50;;;;;;5067943;28;20478;-78
2023/02/22 14:39:02;;;;;;;19.70;18.23;;;16.10;84.30;;;;;;5068082;28;20512;-77
2023/02/22 14:41:32;;;;;;;18.30;17.10;;;16.20;84.20;;;;;;5068542;28;20444;-78
2023/02/22 14:44:04;;;;;;;18.80;17.47;;;16.20;84.40;;;;;;5068155;28;20447;-78
2023/02/22 14:46:39;;;;;;;18.40;16.90;;;16.20;84.40;;;;;;5069323;28;20450;-77
2023/02/22 14:49:09;;;;;;;20.03;18.37;;;16.30;83.90;;;;;;5072338;28;20507;-78
2023/02/22 14:51:41;;;;;;;20.10;18.40;;;16.40;84.00;;;;;;5072285;28;20580;-77
2023/02/22 14:54:13;;;;;;;19.57;17.97;;;16.50;83.50;;;;;;5072054;28;20454;-77
2023/02/22 14:56:48;;;;;;;20.23;18.60;;;16.30;84.60;;;;;;5072168;28;20933;-77
2023/02/22 14:59:18;;;;;;;20.33;18.70;;;16.30;86.20;;;;;;5072274;28;20459;-77
2023/02/22 15:01:46;;;;;;;22.17;19.83;;;16.30;87.10;;;;;;5071885;28;20458;-79
2023/02/22 15:04:20;;;;;;;21.10;19.50;;;16.40;87.60;;;;;;5071780;28;20993;-79
2023/02/22 15:06:48;;;;;;;20.77;18.57;;;16.30;88.60;;;;;;5071494;28;20478;-76
2023/02/22 15:09:22;;;;;;;23.47;21.37;;;16.20;90.30;;;;;;5071443;28;20492;-77
2023/02/22 15:11:52;;;;;;;21.27;19.43;;;16.20;90.50;;;;;;5071876;28;20482;-77
2023/02/22 15:14:22;;;;;;;22.30;20.50;;;16.20;90.60;;;;;;5071703;28;20497;-77
2023/02/22 15:16:51;;;;;;;20.00;18.47;;;16.10;90.70;;;;;;5071779;28;20481;-77
2023/02/22 15:19:24;;;;;;;20.57;18.97;;;16.20;90.90;;;;;;5071461;28;20454;-77
2023/02/22 15:21:53;;;;;;;21.03;19.43;;;16.20;91.20;;;;;;5071234;28;20482;-78
2023/02/22 15:24:24;;;;;;;21.50;19.90;;;16.10;91.70;;;;;;5071539;28;20458;-77
2023/02/22 15:26:52;;;;;;;21.77;19.80;;;16.10;91.90;;;;;;5072097;28;20458;-77
2023/02/22 15:29:22;;;;;;;24.30;22.07;;;16.00;92.80;;;;;;5072150;28;20825;-76
2023/02/22 15:31:49;;;;;;;23.33;21.30;;;15.80;94.00;;;;;;5071909;28;20487;-78
2023/02/22 15:34:23;;;;;;;22.00;20.20;;;15.90;94.60;;;;;;5072039;28;20968;-77
2023/02/22 15:36:53;;;;;;;23.93;22.10;;;15.80;95.20;;;;;;5072197;28;20455;-78
2023/02/22 15:39:24;;;;;;;23.50;21.80;;;15.80;95.80;;;;;;5071991;28;20930;-78
2023/02/22 15:42:01;;;;;;;22.10;20.30;;;15.70;96.30;;;;;;5072231;28;20537;-79
2023/02/22 15:44:29;;;;;;;23.43;21.33;;;15.60;96.80;;;;;;5071773;28;20541;-78
2023/02/22 15:46:57;;;;;;;24.43;22.30;;;15.40;97.40;;;;;;5071698;28;20542;-79
2023/02/22 15:49:24;;;;;;;24.20;21.83;;;15.30;97.70;;;;;;5071606;28;20458;-78
2023/02/22 15:52:04;;;;;;;23.03;21.43;;;15.20;98.30;;;;;;5071553;28;20537;-78
2023/02/22 15:54:39;;;;;;;24.23;22.10;;;15.00;99.00;;;;;;5071448;28;20823;-78
2023/02/22 15:57:09;;;;;;;25.53;23.23;;;15.10;99.20;;;;;;5071733;28;20558;-78
2023/02/22 15:59:43;;;;;;;23.47;21.80;;;15.00;99.50;;;;;;5071595;28;20479;-77
2023/02/22 16:02:28;;;;;;;23.00;21.00;;;15.00;99.70;;;;;;5071392;28;20453;-78
2023/02/22 16:04:59;;;;;;;23.40;21.60;;;14.90;99.90;;;;;;5071170;28;20532;-78
2023/02/22 16:07:26;;;;;;;24.93;22.53;;;14.90;99.90;;;;;;5071132;28;20467;-78
2023/02/22 16:09:53;;;;;;;25.80;23.27;;;14.80;99.90;;;;;;5071095;28;20478;-78
2023/02/22 16:12:28;;;;;;;23.23;21.40;;;14.70;99.90;;;;;;5071281;28;20809;-77
2023/02/22 16:14:56;;;;;;;24.40;22.20;;;14.70;99.90;;;;;;5071085;28;20458;-77
2023/02/22 16:17:29;;;;;;;23.67;21.80;;;14.70;99.90;;;;;;5071394;28;20455;-78
2023/02/22 16:19:57;;;;;;;24.47;22.27;;;14.70;99.90;;;;;;5070850;28;20451;-77
2023/02/22 16:22:32;;;;;;;24.50;22.50;;;14.70;99.90;;;;;;5070859;28;20451;-79
2023/02/22 16:25:15;;;;;;;25.37;23.17;;;14.70;99.90;;;;;;5070572;28;20819;-78
2023/02/22 16:27:47;;;;;;;24.00;21.60;;;14.70;99.90;;;;;;5070480;28;20714;-78
2023/02/22 16:30:26;;;;;;;23.87;21.80;;;14.70;99.90;;;;;;5070657;28;20729;-79
2023/02/22 16:32:54;;;;;;;24.30;22.27;;;14.50;99.90;;;;;;5071215;28;20482;-79
2023/02/22 16:35:27;;;;;;;24.50;22.03;;;14.50;99.90;;;;;;5070838;28;20454;-78
2023/02/22 16:37:58;;;;;;;24.30;22.23;;;14.40;99.90;;;;;;5070807;28;20498;-78
2023/02/22 16:40:30;;;;;;;23.50;21.40;;;14.40;99.90;;;;;;5070867;28;20447;-78
2023/02/22 16:42:59;;;;;;;26.00;23.67;;;14.30;99.90;;;;;;5070282;28;20450;-77
2023/02/22 16:45:26;;;;;;;26.77;24.27;;;14.30;99.90;;;;;;5070303;28;20531;-78
2023/02/22 16:47:53;;;;;;;26.37;24.20;;;14.10;99.90;;;;;;5070394;28;20462;-77
2023/02/22 16:50:20;;;;;;;25.07;22.90;;;14.00;99.90;;;;;;5070696;28;20784;-77
2023/02/22 16:52:48;;;;;;;26.10;23.27;;;13.90;99.90;;;;;;5070042;28;20487;-78
2023/02/22 16:55:17;;;;;;;23.97;21.77;;;13.80;99.90;;;;;;5069951;28;20462;-78
2023/02/22 16:57:44;;;;;;;25.50;23.50;;;13.70;99.90;;;;;;5070888;28;20478;-78
2023/02/22 17:00:15;;;;;;;25.50;23.40;;;13.70;99.90;;;;;;5070412;28;20451;-76
2023/02/22 17:02:43;;;;;;;24.37;22.27;;;13.60;99.90;;;;;;5070339;28;20439;-77
2023/02/22 17:05:13;;;;;;;27.60;25.00;;;13.50;99.90;;;;;;5069982;28;20451;-78
2023/02/22 17:07:41;;;;;;;27.43;25.00;;;13.50;99.90;;;;;;5069906;28;20849;-76
2023/02/22 17:10:08;;;;;;;28.80;25.93;;;13.50;99.90;;;;;;5069440;28;20485;-78
2023/02/22 17:12:34;;;;;;;28.03;25.43;;;13.40;99.90;;;;;;5070113;28;20490;-77
2023/02/22 17:15:03;;;;;;;27.37;24.77;;;13.40;99.90;;;;;;5069894;28;20451;-77
2023/02/22 17:17:32;;;;;;;26.37;23.87;;;13.30;99.90;;;;;;5069822;28;20451;-79
2023/02/22 17:20:00;;;;;;;29.70;24.00;;;13.30;99.90;;;;;;5069796;28;20482;-79
2023/02/22 17:22:27;;;;;;;28.70;25.97;;;13.30;99.90;;;;;;5069707;28;20534;-78
2023/02/22 17:24:53;;;;;;;26.03;23.63;;;13.20;99.90;;;;;;5069865;28;20457;-78
2023/02/22 17:27:20;;;;;;;26.53;24.13;;;13.20;99.90;;;;;;5069874;28;20855;-77
2023/02/22 17:29:47;;;;;;;27.30;24.90;;;13.20;99.90;;;;;;5070808;28;20542;-76
2023/02/22 17:32:14;;;;;;;30.27;27.27;;;13.20;99.90;;;;;;5069550;28;20544;-77
2023/02/22 17:34:42;;;;;;;30.57;27.30;;;13.10;99.90;;;;;;5069839;28;20458;-77
2023/02/22 17:37:09;;;;;;;34.77;28.70;;;12.90;99.90;;;;;;5069621;28;20455;-78
2023/02/22 17:39:36;;;;;;;33.10;29.70;;;12.90;99.90;;;;;;5069710;28;20447;-77
2023/02/22 17:42:02;;;;;;;34.57;30.83;;;12.90;99.90;;;;;;5069924;28;20451;-77
2023/02/22 17:44:30;;;;;;;29.50;26.40;;;12.80;99.90;;;;;;5069672;28;20451;-76
2023/02/22 17:46:57;;;;;;;33.10;29.87;;;12.70;99.90;;;;;;5069350;28;20483;-77
2023/02/22 17:49:23;;;;;;;33.07;27.30;;;12.60;99.90;;;;;;5069605;28;20458;-77
2023/02/22 17:51:52;;;;;;;29.27;26.57;;;12.50;99.90;;;;;;5069557;28;20490;-77
2023/02/22 17:54:19;;;;;;;32.13;29.00;;;12.40;99.90;;;;;;5069217;28;20451;-77
2023/02/22 17:56:46;;;;;;;36.10;32.33;;;12.40;99.90;;;;;;5069489;28;20537;-78
